Rocky Hill, Connecticut
Current Conditions -  °F | °C
As of 7:53 PM on Wednesday 22 Oct 2014 (Local Time) from KHFD Reporting Station
Moderate Rain Moderate Rain  
Wind Chill: 50°   Ceiling: 2000
Heat Index: 50°   Visibility: 8mi
Dew Point: 46°   Wind: 17mph
Humidity: 86%   Direction: 10°N
Pressure: 29.82"   Gusts: 29mph
Location:  41.67°N, 72.64°W
Report Text: KHFD 222353Z 01015G25KT 8SM RA BKN020 OVC024 10/08 A2982 RMK AO2 PK WND 02027/2301 SLP096 P0006 60017 T01000078 10117 20100 58019
Loading
Personal Weather Stations






























Interactive Weather Map
Tropical Storm Tracking
New forecast layout! Learn more

10-Day Weather Forecast

Advertisements
Track Severe Weather on mobile